createdAt,value
2018-04-07T00:01:23.634Z,7.57
2018-04-07T00:03:51.367Z,7.17
2018-04-07T00:06:19.439Z,7.60
2018-04-07T00:08:47.510Z,7.53
2018-04-07T00:11:15.555Z,6.30
2018-04-07T00:13:43.196Z,6.70
2018-04-07T00:16:10.900Z,6.60
2018-04-07T00:18:38.935Z,6.40
2018-04-07T00:21:06.593Z,6.43
2018-04-07T00:23:34.260Z,5.83
2018-04-07T00:26:01.916Z,6.30
2018-04-07T00:28:29.554Z,5.50
2018-04-07T00:30:57.274Z,5.97
2018-04-07T00:33:24.922Z,5.07
2018-04-07T00:35:52.589Z,5.73
2018-04-07T00:38:20.224Z,5.37
2018-04-07T00:40:47.885Z,6.23
2018-04-07T00:43:15.531Z,6.20
2018-04-07T00:45:43.176Z,5.40
2018-04-07T00:48:10.844Z,5.53
2018-04-07T00:50:38.492Z,5.60
2018-04-07T00:53:06.524Z,6.07
2018-04-07T00:55:34.196Z,5.17
2018-04-07T00:58:01.832Z,4.73
2018-04-07T01:00:29.470Z,5.70
2018-04-07T01:02:57.139Z,5.03
2018-04-07T01:05:24.801Z,5.17
2018-04-07T01:07:52.447Z,6.17
2018-04-07T01:10:20.099Z,5.20
2018-04-07T01:12:47.738Z,5.57
2018-04-07T01:15:15.776Z,5.80
2018-04-07T01:17:43.420Z,5.17
2018-04-07T01:20:11.084Z,5.40
2018-04-07T01:22:38.746Z,5.70
2018-04-07T01:25:06.381Z,4.90
2018-04-07T01:27:34.035Z,5.40
2018-04-07T01:30:02.067Z,5.10
2018-04-07T01:32:29.738Z,5.27
2018-04-07T01:34:57.394Z,4.80
2018-04-07T01:37:25.166Z,4.40
2018-04-07T01:39:52.831Z,4.80
2018-04-07T01:42:20.611Z,4.70
2018-04-07T01:44:48.630Z,4.80
2018-04-07T01:47:16.360Z,6.30
2018-04-07T01:49:43.995Z,5.07
2018-04-07T01:52:11.626Z,5.83
2018-04-07T01:54:39.271Z,5.30
2018-04-07T01:57:06.912Z,5.30
2018-04-07T01:59:34.576Z,4.80
2018-04-07T02:02:02.198Z,4.53
2018-04-07T02:04:29.832Z,5.90
2018-04-07T02:06:57.502Z,5.23
2018-04-07T02:09:25.145Z,5.33
2018-04-07T02:11:52.932Z,5.23
2018-04-07T02:14:20.571Z,4.20
2018-04-07T02:16:48.213Z,5.20
2018-04-07T02:19:15.872Z,4.90
2018-04-07T02:21:43.506Z,5.00
2018-04-07T02:24:11.567Z,4.90
2018-04-07T02:26:39.208Z,5.57
2018-04-07T02:29:06.855Z,6.10
2018-04-07T02:31:34.510Z,5.60
2018-04-07T02:34:02.152Z,5.30
2018-04-07T02:36:29.829Z,5.90
2018-04-07T02:38:57.560Z,5.80
2018-04-07T02:41:25.600Z,4.87
2018-04-07T02:43:53.292Z,5.50
2018-04-07T02:46:21.333Z,4.70
2018-04-07T02:48:48.995Z,5.70
2018-04-07T02:51:16.632Z,6.07
2018-04-07T02:53:44.351Z,5.30
2018-04-07T02:56:12.404Z,5.70
2018-04-07T02:58:40.062Z,6.53
2018-04-07T03:01:07.752Z,6.33
2018-04-07T03:03:35.419Z,5.70
2018-04-07T03:06:03.066Z,5.03
2018-04-07T03:08:30.714Z,5.33
2018-04-07T03:10:58.410Z,5.43
2018-04-07T03:13:26.083Z,5.90
2018-04-07T03:15:53.825Z,5.83
2018-04-07T03:18:21.866Z,6.00
2018-04-07T03:20:49.571Z,6.57
2018-04-07T03:23:17.174Z,5.67
2018-04-07T03:25:44.844Z,5.60
2018-04-07T03:28:12.474Z,6.43
2018-04-07T03:30:40.108Z,6.00
2018-04-07T03:33:07.782Z,6.40
2018-04-07T03:35:35.519Z,6.23
2018-04-07T03:38:03.570Z,6.63
2018-04-07T03:40:31.259Z,6.00
2018-04-07T03:42:59.286Z,6.80
2018-04-07T03:45:27.002Z,5.90
2018-04-07T03:47:55.055Z,6.97
2018-04-07T03:50:23.117Z,6.20
2018-04-07T03:52:51.698Z,7.00
2018-04-07T03:55:19.328Z,6.10
2018-04-07T03:57:47.043Z,6.37
2018-04-07T04:00:15.075Z,7.57
2018-04-07T04:02:42.734Z,6.60
2018-04-07T04:05:10.410Z,6.97
2018-04-07T04:07:38.054Z,6.77
2018-04-07T04:10:05.755Z,6.33
2018-04-07T04:12:33.792Z,6.00
2018-04-07T04:15:01.460Z,7.60
2018-04-07T04:17:29.120Z,6.23
2018-04-07T04:19:56.752Z,7.53
2018-04-07T04:22:24.474Z,6.60
2018-04-07T04:24:52.508Z,6.53
2018-04-07T04:27:20.214Z,7.20
2018-04-07T04:29:48.285Z,6.10
2018-04-07T04:32:16.320Z,6.50
2018-04-07T04:34:44.033Z,8.50
2018-04-07T04:37:12.070Z,6.80
2018-04-07T04:39:39.720Z,6.30
2018-04-07T04:42:07.382Z,7.63
2018-04-07T04:44:35.012Z,7.30
2018-04-07T04:47:02.734Z,7.67
2018-04-07T04:49:30.771Z,8.00
2018-04-07T04:51:58.435Z,7.53
2018-04-07T04:54:26.099Z,7.27
2018-04-07T04:56:53.734Z,7.63
2018-04-07T04:59:21.455Z,7.73
2018-04-07T05:01:49.497Z,8.20
2018-04-07T05:04:17.197Z,7.13
2018-04-07T05:06:45.246Z,9.43
2018-04-07T05:09:12.881Z,8.53
2018-04-07T05:11:40.598Z,8.40
2018-04-07T05:14:08.243Z,8.23
2018-04-07T05:16:36.357Z,8.20
2018-04-07T05:19:04.085Z,8.67
2018-04-07T05:21:32.140Z,8.33
2018-04-07T05:23:59.822Z,8.60
2018-04-07T05:26:27.872Z,7.60
2018-04-07T05:28:55.546Z,8.90
2018-04-07T05:31:23.633Z,7.57
2018-04-07T05:33:51.689Z,7.73
2018-04-07T05:36:19.367Z,8.33
2018-04-07T05:38:47.435Z,7.87
2018-04-07T05:41:15.506Z,8.30
2018-04-07T05:43:43.552Z,8.43
2018-04-07T05:46:11.244Z,7.63
2018-04-07T05:48:39.314Z,8.30
2018-04-07T05:51:07.357Z,9.13
2018-04-07T05:53:35.025Z,7.23
2018-04-07T05:56:02.683Z,8.40
2018-04-07T05:58:30.383Z,9.03
2018-04-07T06:00:58.146Z,7.10
2018-04-07T06:03:25.799Z,8.43
2018-04-07T06:05:53.874Z,9.00
2018-04-07T06:08:21.938Z,8.47
2018-04-07T06:10:49.999Z,8.80
2018-04-07T06:13:17.649Z,8.10
2018-04-07T06:15:45.341Z,7.53
2018-04-07T06:18:13.390Z,8.23
2018-04-07T06:20:41.040Z,8.63
2018-04-07T06:23:08.684Z,8.67
2018-04-07T06:25:36.353Z,8.77
2018-04-07T06:28:04.033Z,7.90
2018-04-07T06:30:31.726Z,7.50
2018-04-07T06:32:59.388Z,8.20
2018-04-07T06:35:27.434Z,8.27
2018-04-07T06:37:55.084Z,8.20
2018-04-07T06:40:22.733Z,8.13
2018-04-07T06:42:50.391Z,7.90
2018-04-07T06:45:18.035Z,9.30
2018-04-07T06:47:45.754Z,8.70
2018-04-07T06:50:13.792Z,8.00
2018-04-07T06:52:41.441Z,8.20
2018-04-07T06:55:09.901Z,8.50
2018-04-07T06:57:37.635Z,8.43
2018-04-07T07:00:05.708Z,8.63
2018-04-07T07:02:33.757Z,6.83
2018-04-07T07:05:01.408Z,8.00
2018-04-07T07:07:29.103Z,8.53
2018-04-07T07:09:57.157Z,7.87
2018-04-07T07:12:24.810Z,8.20
2018-04-07T07:14:52.497Z,7.63
2018-04-07T07:17:20.568Z,8.37
2018-04-07T07:19:48.644Z,7.50
2018-04-07T07:22:16.322Z,8.90
2018-04-07T07:24:43.950Z,7.80
2018-04-07T07:27:11.610Z,9.20
2018-04-07T07:29:39.324Z,8.13
2018-04-07T07:32:07.350Z,7.50
2018-04-07T07:34:35.387Z,9.03
2018-04-07T07:37:03.038Z,7.00
2018-04-07T07:39:30.693Z,8.40
2018-04-07T07:41:58.373Z,7.80
2018-04-07T07:44:26.007Z,8.27
2018-04-07T07:46:53.758Z,7.47
2018-04-07T07:49:21.518Z,7.43
2018-04-07T07:51:49.558Z,6.93
2018-04-07T07:54:17.248Z,7.70
2018-04-07T07:56:45.317Z,7.60
2018-04-07T07:59:13.388Z,7.77
2018-04-07T08:01:41.432Z,7.30
2018-04-07T08:04:09.129Z,6.60
2018-04-07T08:06:37.181Z,7.63
2018-04-07T08:09:06.026Z,6.20
2018-04-07T08:11:33.677Z,7.67
2018-04-07T08:14:01.416Z,6.90
2018-04-07T08:16:29.074Z,7.90
2018-04-07T08:18:57.189Z,6.93
2018-04-07T08:21:24.831Z,7.37
2018-04-07T08:23:52.498Z,6.60
2018-04-07T08:26:20.137Z,6.57
2018-04-07T08:28:47.795Z,7.03
2018-04-07T08:31:15.838Z,7.10
2018-04-07T08:33:43.520Z,5.73
2018-04-07T08:36:11.561Z,8.20
2018-04-07T08:38:39.233Z,6.10
2018-04-07T08:41:06.883Z,7.00
2018-04-07T08:43:34.535Z,8.10
2018-04-07T08:46:02.202Z,7.03
2018-04-07T08:48:29.847Z,7.37
2018-04-07T08:50:57.482Z,6.33
2018-04-07T08:53:25.837Z,6.87
2018-04-07T08:55:53.868Z,6.40
2018-04-07T08:58:21.557Z,7.73
2018-04-07T09:00:49.450Z,7.13
2018-04-07T09:03:17.518Z,7.53
2018-04-07T09:05:45.582Z,6.87
2018-04-07T09:08:13.221Z,7.17
2018-04-07T09:10:40.913Z,7.33
2018-04-07T09:13:08.938Z,6.87
2018-04-07T09:15:36.582Z,7.03
2018-04-07T09:18:04.236Z,6.50
2018-04-07T09:20:31.883Z,7.00
2018-04-07T09:22:59.543Z,6.80
2018-04-07T09:25:27.298Z,6.67
2018-04-07T09:27:55.410Z,7.00
2018-04-07T09:30:23.070Z,6.43
2018-04-07T09:32:50.745Z,6.70
2018-04-07T09:35:18.405Z,6.70
2018-04-07T09:37:46.066Z,6.70
2018-04-07T09:40:13.795Z,7.27
2018-04-07T09:42:41.548Z,6.37
2018-04-07T09:45:09.585Z,6.87
2018-04-07T09:47:37.252Z,6.50
2018-04-07T09:50:04.898Z,6.17
2018-04-07T09:52:32.526Z,6.10
2018-04-07T09:55:00.252Z,6.70
2018-04-07T09:57:27.919Z,6.87
2018-04-07T09:59:55.987Z,6.33
2018-04-07T10:02:24.022Z,6.60
2018-04-07T10:04:51.663Z,6.20
2018-04-07T10:07:19.388Z,6.63
2018-04-07T10:09:47.465Z,5.50
2018-04-07T10:12:15.521Z,6.17
2018-04-07T10:14:43.154Z,6.37
2018-04-07T10:17:10.855Z,6.40
2018-04-07T10:19:38.926Z,6.83
2018-04-07T10:22:07.054Z,6.97
2018-04-07T10:24:34.722Z,5.90
2018-04-07T10:27:02.440Z,7.50
2018-04-07T10:29:30.186Z,6.53
2018-04-07T10:31:58.283Z,6.00
2018-04-07T10:34:25.923Z,5.47
2018-04-07T10:36:53.978Z,5.77
2018-04-07T10:39:21.618Z,6.13
2018-04-07T10:41:49.326Z,5.40
2018-04-07T10:44:17.367Z,5.67
2018-04-07T10:46:45.074Z,5.07
2018-04-07T10:49:12.810Z,5.57
2018-04-07T10:51:40.454Z,5.73
2018-04-07T10:54:08.134Z,8.20
2018-04-07T10:56:36.175Z,6.40
2018-04-07T10:59:03.827Z,6.30
2018-04-07T11:01:31.486Z,5.93
2018-04-07T11:03:59.202Z,6.20
2018-04-07T11:06:27.270Z,6.27
2018-04-07T11:08:56.011Z,5.90
2018-04-07T11:11:23.712Z,6.30
2018-04-07T11:13:51.333Z,5.47
2018-04-07T11:16:19.027Z,6.20
2018-04-07T11:18:46.681Z,6.47
2018-04-07T11:21:14.364Z,6.00
2018-04-07T11:23:42.431Z,6.47
2018-04-07T11:26:10.106Z,6.27
2018-04-07T11:28:38.149Z,7.00
2018-04-07T11:31:05.787Z,6.87
2018-04-07T11:33:33.450Z,7.10
2018-04-07T11:36:01.156Z,6.77
2018-04-07T11:38:28.936Z,6.73
2018-04-07T11:40:56.979Z,5.97
2018-04-07T11:43:24.670Z,6.87
2018-04-07T11:45:52.724Z,7.77
2018-04-07T11:48:20.368Z,7.50
2018-04-07T11:50:48.062Z,6.60
2018-04-07T11:53:16.122Z,6.23
2018-04-07T11:55:44.164Z,5.83
2018-04-07T11:58:11.840Z,6.03
2018-04-07T12:00:39.527Z,5.57
2018-04-07T12:03:07.598Z,5.93
2018-04-07T12:05:35.674Z,5.90
2018-04-07T12:08:03.711Z,5.70
2018-04-07T12:10:31.377Z,6.00
2018-04-07T12:12:59.012Z,6.00
2018-04-07T12:15:26.673Z,6.33
2018-04-07T12:17:54.326Z,6.67
2018-04-07T12:20:22.058Z,6.40
2018-04-07T12:22:50.209Z,5.63
2018-04-07T12:25:17.897Z,6.50
2018-04-07T12:27:46.057Z,5.43
2018-04-07T12:30:14.135Z,5.60
2018-04-07T12:32:42.210Z,5.50
2018-04-07T12:35:10.267Z,5.20
2018-04-07T12:37:38.310Z,4.93
2018-04-07T12:40:05.998Z,5.97
2018-04-07T12:42:33.635Z,5.93
2018-04-07T12:45:01.339Z,6.00
2018-04-07T12:47:29.382Z,5.00
2018-04-07T12:49:57.034Z,5.70
2018-04-07T12:52:24.722Z,5.83
2018-04-07T12:54:52.767Z,5.40
2018-04-07T12:57:20.506Z,5.70
2018-04-07T12:59:48.209Z,5.70
2018-04-07T13:02:15.850Z,5.37
2018-04-07T13:04:43.518Z,4.80
2018-04-07T13:07:11.170Z,4.90
2018-04-07T13:09:38.820Z,5.67
2018-04-07T13:12:06.462Z,4.90
2018-04-07T13:14:34.104Z,4.63
2018-04-07T13:17:02.204Z,4.47
2018-04-07T13:19:29.832Z,5.27
2018-04-07T13:21:57.862Z,5.40
2018-04-07T13:24:25.600Z,4.60
2018-04-07T13:26:53.227Z,4.33
2018-04-07T13:29:21.276Z,5.20
2018-04-07T13:31:48.919Z,4.90
2018-04-07T13:34:16.559Z,5.13
2018-04-07T13:36:44.195Z,5.07
2018-04-07T13:39:11.947Z,4.77
2018-04-07T13:41:40.001Z,5.20
2018-04-07T13:44:07.680Z,5.10
2018-04-07T13:46:35.314Z,5.40
2018-04-07T13:49:03.010Z,4.67
2018-04-07T13:51:30.668Z,4.50
2018-04-07T13:53:58.734Z,4.77
2018-04-07T13:56:26.813Z,4.80
2018-04-07T13:58:54.923Z,4.80
2018-04-07T14:01:22.582Z,4.90
2018-04-07T14:03:50.336Z,5.20
2018-04-07T14:06:18.016Z,4.90
2018-04-07T14:08:45.767Z,4.20
2018-04-07T14:11:13.399Z,4.20
2018-04-07T14:13:41.470Z,4.20
2018-04-07T14:16:09.528Z,4.70
2018-04-07T14:18:37.623Z,4.37
2018-04-07T14:21:05.665Z,4.90
2018-04-07T14:23:33.370Z,4.03
2018-04-07T14:26:01.118Z,3.70
2018-04-07T14:28:29.161Z,4.67
2018-04-07T14:30:56.829Z,4.77
2018-04-07T14:33:24.492Z,4.70
2018-04-07T14:35:52.135Z,4.57
2018-04-07T14:38:19.841Z,3.90
2018-04-07T14:40:47.913Z,5.20
2018-04-07T14:43:15.998Z,4.97
2018-04-07T14:45:43.705Z,4.70
2018-04-07T14:48:11.370Z,4.30
2018-04-07T14:50:39.034Z,4.10
2018-04-07T14:53:06.694Z,4.40
2018-04-07T14:55:34.416Z,4.80
2018-04-07T14:58:02.244Z,4.40
2018-04-07T15:00:30.447Z,5.03
2018-04-07T15:02:58.094Z,4.77
2018-04-07T15:05:25.774Z,4.70
2018-04-07T15:07:53.526Z,5.20
2018-04-07T15:10:21.569Z,4.50
2018-04-07T15:12:49.212Z,4.80
2018-04-07T15:15:16.866Z,4.90
2018-04-07T15:17:44.522Z,4.97
2018-04-07T15:20:12.185Z,4.63
2018-04-07T15:22:42.380Z,4.40
2018-04-07T15:25:10.008Z,5.17
2018-04-07T15:27:37.662Z,4.67
2018-04-07T15:30:05.338Z,4.87
2018-04-07T15:32:33.383Z,4.50
2018-04-07T15:35:01.039Z,4.70
2018-04-07T15:37:28.736Z,4.47
2018-04-07T15:39:56.854Z,6.73
2018-04-07T15:42:24.531Z,4.60
2018-04-07T15:44:52.243Z,5.00
2018-04-07T15:47:20.303Z,4.43
2018-04-07T15:49:48.334Z,3.80
2018-04-07T15:52:15.973Z,4.50
2018-04-07T15:54:43.629Z,4.57
2018-04-07T15:57:11.367Z,4.00
2018-04-07T15:59:39.401Z,4.17
2018-04-07T16:02:07.075Z,4.30
2018-04-07T16:04:34.744Z,4.53
2018-04-07T16:07:02.382Z,3.60
2018-04-07T16:09:30.022Z,4.50
2018-04-07T16:11:57.675Z,4.40
2018-04-07T16:14:25.350Z,4.50
2018-04-07T16:16:53.105Z,4.50
2018-04-07T16:19:20.762Z,5.10
2018-04-07T16:21:48.493Z,4.33
2018-04-07T16:24:16.566Z,4.33
2018-04-07T16:26:44.244Z,4.90
2018-04-07T16:29:11.889Z,5.83
2018-04-07T16:31:39.927Z,4.63
2018-04-07T16:34:08.565Z,5.00
2018-04-07T16:36:36.761Z,4.40
2018-04-07T16:39:04.543Z,4.00
2018-04-07T16:41:32.174Z,4.43
2018-04-07T16:43:59.855Z,4.73
2018-04-07T16:46:27.513Z,4.43
2018-04-07T16:48:55.156Z,4.90
2018-04-07T16:51:22.814Z,5.17
2018-04-07T16:53:50.444Z,5.37
2018-04-07T16:56:18.085Z,4.83
2018-04-07T16:58:45.769Z,4.97
2018-04-07T17:01:13.403Z,5.23
2018-04-07T17:03:41.143Z,4.23
2018-04-07T17:06:08.810Z,4.87
2018-04-07T17:08:36.441Z,4.97
2018-04-07T17:11:04.543Z,5.10
2018-04-07T17:13:32.178Z,5.53
2018-04-07T17:15:59.926Z,6.33
2018-04-07T17:18:28.030Z,5.53
2018-04-07T17:20:56.112Z,4.90
2018-04-07T17:23:23.801Z,4.90
2018-04-07T17:25:51.509Z,5.10
2018-04-07T17:28:19.584Z,6.23
2018-04-07T17:30:47.624Z,4.90
2018-04-07T17:33:15.930Z,4.87
2018-04-07T17:35:43.592Z,5.67
2018-04-07T17:38:11.646Z,5.73
2018-04-07T17:40:39.871Z,5.70
2018-04-07T17:43:07.545Z,5.83
2018-04-07T17:45:35.193Z,6.73
2018-04-07T17:48:02.838Z,6.23
2018-04-07T17:50:30.500Z,6.07
2018-04-07T17:52:58.164Z,6.40
2018-04-07T17:55:25.826Z,5.57
2018-04-07T17:57:53.477Z,5.90
2018-04-07T18:00:21.126Z,7.20
2018-04-07T18:02:49.200Z,6.77
2018-04-07T18:05:17.270Z,7.27
2018-04-07T18:07:45.322Z,8.33
2018-04-07T18:10:12.962Z,8.57
2018-04-07T18:12:40.669Z,7.90
2018-04-07T18:15:08.762Z,8.87
2018-04-07T18:17:37.104Z,9.60
2018-04-07T18:20:05.192Z,9.47
2018-04-07T18:22:33.263Z,10.33
2018-04-07T18:25:01.414Z,11.00
2018-04-07T18:27:29.107Z,10.70
2018-04-07T18:29:56.859Z,10.53
2018-04-07T18:32:24.913Z,11.23
2018-04-07T18:34:52.598Z,11.27
2018-04-07T18:37:20.272Z,10.57
2018-04-07T18:39:47.931Z,12.23
2018-04-07T18:42:15.687Z,11.37
2018-04-07T18:44:43.429Z,11.57
2018-04-07T18:47:11.082Z,11.87
2018-04-07T18:49:38.732Z,11.37
2018-04-07T18:52:06.402Z,12.67
2018-04-07T18:54:34.047Z,12.40
2018-04-07T18:57:01.702Z,12.10
2018-04-07T18:59:29.436Z,11.93
2018-04-07T19:01:57.103Z,12.00
2018-04-07T19:04:24.780Z,13.30
2018-04-07T19:06:52.438Z,12.10
2018-04-07T19:09:20.086Z,11.93
2018-04-07T19:11:47.778Z,12.93
2018-04-07T19:14:15.436Z,13.50
2018-04-07T19:16:43.100Z,12.33
2018-04-07T19:19:10.762Z,12.90
2018-04-07T19:21:38.441Z,14.70
2018-04-07T19:24:06.110Z,14.80
2018-04-07T19:26:33.764Z,16.20
2018-04-07T19:29:01.453Z,16.70
2018-04-07T19:31:29.085Z,17.07
2018-04-07T19:33:56.745Z,17.57
2018-04-07T19:36:24.409Z,18.60
2018-04-07T19:38:52.054Z,17.40
2018-04-07T19:41:19.773Z,17.67
2018-04-07T19:43:47.537Z,17.73
2018-04-07T19:46:15.580Z,18.33
2018-04-07T19:48:43.243Z,18.00
2018-04-07T19:51:10.933Z,17.47
2018-04-07T19:53:39.000Z,15.57
2018-04-07T19:56:07.089Z,15.47
2018-04-07T19:58:35.132Z,15.03
2018-04-07T20:01:02.793Z,15.27
2018-04-07T20:03:30.446Z,15.43
2018-04-07T20:05:58.134Z,16.47
2018-04-07T20:08:26.225Z,11.80
2018-04-07T20:10:53.871Z,15.57
2018-04-07T20:13:21.935Z,13.93
2018-04-07T20:15:49.987Z,14.33
2018-04-07T20:18:17.642Z,13.50
2018-04-07T20:20:45.302Z,16.23
2018-04-07T20:23:12.969Z,16.67
2018-04-07T20:25:40.669Z,15.90
2018-04-07T20:28:08.314Z,17.30
2018-04-07T20:30:35.978Z,16.10
2018-04-07T20:33:03.654Z,16.73
2018-04-07T20:35:31.927Z,17.40
2018-04-07T20:37:59.963Z,18.73
2018-04-07T20:40:28.580Z,16.40
2018-04-07T20:42:56.646Z,16.20
2018-04-07T20:45:24.691Z,16.80
2018-04-07T20:47:52.345Z,18.90
2018-04-07T20:50:19.999Z,17.00
2018-04-07T20:52:47.639Z,18.70
2018-04-07T20:55:15.302Z,17.63
2018-04-07T20:57:42.943Z,17.27
2018-04-07T21:00:10.590Z,15.27
2018-04-07T21:02:38.652Z,17.20
2018-04-07T21:05:06.297Z,16.87
2018-04-07T21:07:33.949Z,17.80
2018-04-07T21:10:01.600Z,18.13
2018-04-07T21:12:29.301Z,16.93
2018-04-07T21:14:56.950Z,16.87
2018-04-07T21:17:25.101Z,17.27
2018-04-07T21:19:52.846Z,15.77
2018-04-07T21:22:20.496Z,15.60
2018-04-07T21:24:48.137Z,16.47
2018-04-07T21:27:16.204Z,16.20
2018-04-07T21:29:44.238Z,17.50
2018-04-07T21:32:11.923Z,16.57
2018-04-07T21:34:39.607Z,16.73
2018-04-07T21:37:07.661Z,14.70
2018-04-07T21:39:35.328Z,15.93
2018-04-07T21:42:03.194Z,13.80
2018-04-07T21:44:31.054Z,15.83
2018-04-07T21:46:58.715Z,14.80
2018-04-07T21:49:26.405Z,14.73
2018-04-07T21:51:54.051Z,14.77
2018-04-07T21:54:22.106Z,15.03
2018-04-07T21:56:49.768Z,14.73
2018-04-07T21:59:17.411Z,15.07
2018-04-07T22:01:45.066Z,15.73
2018-04-07T22:04:12.726Z,14.53
2018-04-07T22:06:40.383Z,15.23
2018-04-07T22:09:08.045Z,15.30
2018-04-07T22:11:35.690Z,13.97
2018-04-07T22:14:03.421Z,14.30
2018-04-07T22:16:31.470Z,14.93
2018-04-07T22:18:59.103Z,13.77
2018-04-07T22:21:26.773Z,14.20
2018-04-07T22:23:54.426Z,14.30
2018-04-07T22:26:22.078Z,14.30
2018-04-07T22:28:49.722Z,14.27
2018-04-07T22:31:17.353Z,13.60
2018-04-07T22:33:45.019Z,15.23
2018-04-07T22:36:12.649Z,13.77
2018-04-07T22:38:40.306Z,14.77
2018-04-07T22:41:07.962Z,13.37
2018-04-07T22:43:35.593Z,12.10
2018-04-07T22:46:03.274Z,12.33
2018-04-07T22:48:30.928Z,11.50
2018-04-07T22:50:58.562Z,11.13
2018-04-07T22:53:26.615Z,11.70
2018-04-07T22:55:54.260Z,10.97
2018-04-07T22:58:21.921Z,12.50
2018-04-07T23:00:49.948Z,10.20
2018-04-07T23:03:17.600Z,9.60
2018-04-07T23:05:45.249Z,11.30
2018-04-07T23:08:13.305Z,10.90
2018-04-07T23:10:40.967Z,11.50
2018-04-07T23:13:08.804Z,11.20
2018-04-07T23:15:36.450Z,10.43
2018-04-07T23:18:04.142Z,9.77
2018-04-07T23:20:31.773Z,11.90
2018-04-07T23:22:59.459Z,11.00
2018-04-07T23:25:27.104Z,11.73
2018-04-07T23:27:54.816Z,10.27
2018-04-07T23:30:22.871Z,9.53
2018-04-07T23:32:50.514Z,12.10
2018-04-07T23:35:18.355Z,10.03
2018-04-07T23:37:45.989Z,10.73
2018-04-07T23:40:14.075Z,10.50
2018-04-07T23:42:41.726Z,10.90
2018-04-07T23:45:09.774Z,10.83
2018-04-07T23:47:37.439Z,10.70
2018-04-07T23:50:05.107Z,10.77
2018-04-07T23:52:33.143Z,10.00
2018-04-07T23:55:00.799Z,11.57
2018-04-07T23:57:28.439Z,11.33
2018-04-07T23:59:56.099Z,11.13
